Time;durP1;ratioP1;P1;durP2;ratioP2;P2;SDS_P1;SDS_P2;PMS_P1;PMS_P2;Temp;Humidity;BMP_temperature;BMP_pressure;BME280_temperature;BME280_humidity;BME280_pressure;Samples;Min_cycle;Max_cycle;Signal;HPM_P1;HPM_P2
2021/10/22 00:01:33;;;;;;;7.57;0.63;;;6.40;99.90;;;;;;5109490;28;20040;-77
2021/10/22 00:04:00;;;;;;;7.32;0.60;;;6.40;99.90;;;;;;5073199;28;20032;-77
2021/10/22 00:06:26;;;;;;;3.38;0.70;;;6.30;99.90;;;;;;5093723;27;20392;-77
2021/10/22 00:08:53;;;;;;;3.58;0.45;;;6.30;99.90;;;;;;5112828;27;20061;-77
2021/10/22 00:11:24;;;;;;;3.63;0.60;;;6.30;99.90;;;;;;5051168;28;20449;-77
2021/10/22 00:13:51;;;;;;;5.10;0.32;;;6.30;99.90;;;;;;5112035;27;20033;-77
2021/10/22 00:16:17;;;;;;;6.68;0.50;;;6.30;99.90;;;;;;5092836;28;20028;-77
2021/10/22 00:18:44;;;;;;;8.27;0.52;;;6.30;99.90;;;;;;5109976;27;20038;-77
2021/10/22 00:21:10;;;;;;;8.73;0.75;;;6.30;99.90;;;;;;5074141;28;20047;-77
2021/10/22 00:23:37;;;;;;;6.70;0.65;;;6.30;99.90;;;;;;5069827;27;20040;-77
2021/10/22 00:26:03;;;;;;;8.25;0.55;;;6.30;99.90;;;;;;5094870;28;20578;-77
2021/10/22 00:28:29;;;;;;;8.13;1.30;;;6.30;99.90;;;;;;5073869;27;20690;-77
2021/10/22 00:30:56;;;;;;;8.52;0.70;;;6.30;99.90;;;;;;5091568;27;20032;-77
2021/10/22 00:33:23;;;;;;;5.72;0.55;;;6.30;99.90;;;;;;5094466;27;20035;-77
2021/10/22 00:35:49;;;;;;;4.25;0.52;;;6.30;99.90;;;;;;5058071;28;20039;-77
2021/10/22 00:38:16;;;;;;;8.35;0.77;;;6.40;99.90;;;;;;5110679;27;20027;-77
2021/10/22 00:40:44;;;;;;;7.80;0.80;;;6.50;99.90;;;;;;5091326;28;20038;-77
2021/10/22 00:43:15;;;;;;;4.40;0.60;;;6.60;99.90;;;;;;5102209;28;20043;-77
2021/10/22 00:45:42;;;;;;;4.68;0.80;;;6.60;99.90;;;;;;5070900;28;20040;-77
2021/10/22 00:48:08;;;;;;;9.32;1.00;;;6.60;99.90;;;;;;5055809;28;20040;-77
2021/10/22 00:50:40;;;;;;;12.70;0.70;;;6.60;99.90;;;;;;5058328;27;20054;-77
2021/10/22 00:53:07;;;;;;;6.97;0.70;;;6.50;99.90;;;;;;5056134;27;20046;-77
2021/10/22 00:55:34;;;;;;;6.72;0.60;;;6.50;99.90;;;;;;5041427;28;20047;-77
2021/10/22 00:58:00;;;;;;;7.43;0.50;;;6.40;99.90;;;;;;5071559;28;20024;-77
2021/10/22 01:00:27;;;;;;;10.38;1.05;;;6.40;99.90;;;;;;5062802;28;20035;-77
2021/10/22 01:02:53;;;;;;;6.55;1.00;;;6.40;99.90;;;;;;5071720;28;20039;-77
2021/10/22 01:05:21;;;;;;;5.53;0.70;;;6.40;99.90;;;;;;5059886;27;20410;-77
2021/10/22 01:07:49;;;;;;;5.20;0.60;;;6.30;99.90;;;;;;5074351;28;20044;-77
2021/10/22 01:10:15;;;;;;;8.48;0.60;;;6.30;99.90;;;;;;5081269;28;20039;-77
2021/10/22 01:12:42;;;;;;;9.82;0.80;;;6.30;99.90;;;;;;5073647;28;20043;-77
2021/10/22 01:15:09;;;;;;;7.75;0.70;;;6.20;99.90;;;;;;5075632;28;20364;-77
2021/10/22 01:17:43;;;;;;;4.97;0.40;;;6.20;99.90;;;;;;5087788;27;20035;-77
2021/10/22 01:20:12;;;;;;;8.02;0.75;;;6.20;99.90;;;;;;5078539;28;20127;-77
2021/10/22 01:22:41;;;;;;;8.27;0.60;;;6.20;99.90;;;;;;5086962;28;20400;-77
2021/10/22 01:25:10;;;;;;;6.78;0.80;;;6.20;99.90;;;;;;5069708;28;20503;-77
2021/10/22 01:27:36;;;;;;;9.20;0.73;;;6.20;99.90;;;;;;5107647;27;20040;-77
2021/10/22 01:30:07;;;;;;;7.05;0.75;;;6.10;99.90;;;;;;5087777;27;20042;-77
2021/10/22 01:32:35;;;;;;;7.65;0.88;;;6.10;99.90;;;;;;5086741;28;20039;-77
2021/10/22 01:35:02;;;;;;;8.07;0.80;;;6.10;99.90;;;;;;5073986;28;20027;-77
2021/10/22 01:37:29;;;;;;;11.48;1.00;;;6.10;99.90;;;;;;5058272;27;20038;-77
2021/10/22 01:39:59;;;;;;;14.05;1.13;;;6.10;99.90;;;;;;5046885;28;20036;-77
2021/10/22 01:42:30;;;;;;;12.27;1.30;;;6.10;99.90;;;;;;5087600;27;20061;-77
2021/10/22 01:44:57;;;;;;;5.43;1.02;;;6.10;99.90;;;;;;5073307;28;20496;-77
2021/10/22 01:47:24;;;;;;;6.88;0.95;;;6.00;99.90;;;;;;5090843;27;20526;-77
2021/10/22 01:49:52;;;;;;;9.23;0.80;;;6.00;99.90;;;;;;5072587;27;20036;-77
2021/10/22 01:52:19;;;;;;;9.73;1.25;;;6.00;99.90;;;;;;5084448;28;20023;-77
2021/10/22 01:54:46;;;;;;;12.70;1.00;;;6.00;99.90;;;;;;5053933;28;20474;-77
2021/10/22 01:57:13;;;;;;;8.52;0.82;;;6.00;99.90;;;;;;5087266;28;20035;-77
2021/10/22 01:59:40;;;;;;;8.55;0.80;;;5.90;99.90;;;;;;5071394;28;20028;-77
2021/10/22 02:02:07;;;;;;;11.93;1.20;;;5.90;99.90;;;;;;5103213;28;20036;-77
2021/10/22 02:04:34;;;;;;;11.55;0.93;;;5.90;99.90;;;;;;5089661;27;20043;-77
2021/10/22 02:07:01;;;;;;;11.50;1.27;;;5.90;99.90;;;;;;5058645;27;20047;-77
2021/10/22 02:09:27;;;;;;;7.93;0.70;;;5.90;99.90;;;;;;5054786;27;21308;-77
2021/10/22 02:11:54;;;;;;;5.13;0.65;;;5.90;99.90;;;;;;5120355;27;20511;-77
2021/10/22 02:14:20;;;;;;;6.80;0.95;;;5.90;99.90;;;;;;5092157;27;20043;-78
2021/10/22 02:16:48;;;;;;;11.00;0.98;;;5.90;99.90;;;;;;5088869;27;20070;-77
2021/10/22 02:19:14;;;;;;;7.55;1.52;;;5.90;99.90;;;;;;5118648;27;20027;-77
2021/10/22 02:21:41;;;;;;;7.40;1.08;;;5.90;99.90;;;;;;5092867;27;20039;-77
2021/10/22 02:24:08;;;;;;;7.03;1.00;;;5.80;99.90;;;;;;5119088;27;20039;-77
2021/10/22 02:26:35;;;;;;;11.82;0.90;;;5.90;99.90;;;;;;5075552;27;20050;-77
2021/10/22 02:29:02;;;;;;;13.68;1.30;;;5.80;99.90;;;;;;5087987;27;20046;-77
2021/10/22 02:31:29;;;;;;;16.48;1.40;;;5.90;99.90;;;;;;5111723;27;20049;-77
2021/10/22 02:33:55;;;;;;;12.45;0.93;;;5.80;99.90;;;;;;5089330;27;20035;-77
2021/10/22 02:36:22;;;;;;;8.20;1.08;;;5.80;99.90;;;;;;5091144;27;20023;-77
2021/10/22 02:38:49;;;;;;;9.32;1.08;;;5.80;99.90;;;;;;5089595;27;20032;-77
2021/10/22 02:41:16;;;;;;;10.05;1.33;;;5.80;99.90;;;;;;5111227;27;20565;-77
2021/10/22 02:43:47;;;;;;;7.25;1.00;;;5.80;99.90;;;;;;5104976;27;20035;-77
2021/10/22 02:46:15;;;;;;;7.18;0.80;;;5.70;99.90;;;;;;5088113;27;20055;-77
2021/10/22 02:48:42;;;;;;;11.85;0.90;;;5.70;99.90;;;;;;5106338;27;20027;-77
2021/10/22 02:51:08;;;;;;;10.70;0.73;;;5.70;99.90;;;;;;5080457;27;20043;-77
2021/10/22 02:53:35;;;;;;;6.30;1.27;;;5.70;99.90;;;;;;5112389;27;20035;-77
2021/10/22 02:56:02;;;;;;;11.35;1.23;;;5.70;99.90;;;;;;5065662;27;20383;-76
2021/10/22 02:58:29;;;;;;;11.68;1.38;;;5.70;99.90;;;;;;5080574;27;20036;-77
2021/10/22 03:00:56;;;;;;;14.10;1.63;;;5.70;99.90;;;;;;5093056;27;20039;-77
2021/10/22 03:03:22;;;;;;;9.93;0.93;;;5.70;99.90;;;;;;5091995;27;20054;-77
2021/10/22 03:05:49;;;;;;;7.55;0.90;;;5.70;99.90;;;;;;5096230;27;20060;-77
2021/10/22 03:08:15;;;;;;;6.18;1.55;;;5.60;99.90;;;;;;5093287;27;20050;-77
2021/10/22 03:10:44;;;;;;;9.75;1.20;;;5.70;99.90;;;;;;5080146;27;20039;-77
2021/10/22 03:13:10;;;;;;;10.82;0.90;;;5.60;99.90;;;;;;5079228;27;20034;-77
2021/10/22 03:15:36;;;;;;;11.48;1.00;;;5.60;99.90;;;;;;5079075;27;20042;-77
2021/10/22 03:18:03;;;;;;;14.00;1.02;;;5.60;99.90;;;;;;5082312;27;20042;-77
2021/10/22 03:20:29;;;;;;;12.90;1.38;;;5.60;99.90;;;;;;5100091;27;20058;-77
2021/10/22 03:22:56;;;;;;;6.93;0.80;;;5.60;99.90;;;;;;5096360;27;20043;-77
2021/10/22 03:25:22;;;;;;;11.38;1.85;;;5.60;99.90;;;;;;5090056;27;20046;-77
2021/10/22 03:27:52;;;;;;;6.97;1.20;;;5.60;99.90;;;;;;5100389;27;20057;-76
2021/10/22 03:30:19;;;;;;;9.70;1.05;;;5.50;99.90;;;;;;5073709;27;20039;-77
2021/10/22 03:32:45;;;;;;;5.70;0.80;;;5.50;99.90;;;;;;5076130;27;20047;-76
2021/10/22 03:35:12;;;;;;;15.27;1.90;;;5.60;99.90;;;;;;5095415;27;20043;-77
2021/10/22 03:37:38;;;;;;;8.75;1.25;;;5.50;99.90;;;;;;5115488;27;20043;-77
2021/10/22 03:40:05;;;;;;;6.68;0.80;;;5.50;99.90;;;;;;5060315;27;20054;-77
2021/10/22 03:42:31;;;;;;;8.15;0.82;;;5.50;99.90;;;;;;5111787;27;20922;-77
2021/10/22 03:44:58;;;;;;;9.55;1.42;;;5.50;99.90;;;;;;5097895;27;20039;-78
2021/10/22 03:47:25;;;;;;;8.45;1.05;;;5.50;99.90;;;;;;5114500;27;20034;-77
2021/10/22 03:49:51;;;;;;;12.95;3.00;;;5.50;99.90;;;;;;5097247;27;20042;-77
2021/10/22 03:52:18;;;;;;;14.98;2.55;;;5.50;99.90;;;;;;5111520;27;20485;-77
2021/10/22 03:54:44;;;;;;;14.82;2.78;;;5.50;99.90;;;;;;5092830;27;20032;-77
2021/10/22 03:57:11;;;;;;;10.88;1.80;;;5.50;99.90;;;;;;5078719;27;20035;-77
2021/10/22 03:59:37;;;;;;;14.27;3.38;;;5.50;99.90;;;;;;5060113;27;20035;-77
2021/10/22 04:02:04;;;;;;;14.07;2.53;;;5.50;99.90;;;;;;5093117;27;20049;-77
2021/10/22 04:04:30;;;;;;;11.82;3.00;;;5.50;99.90;;;;;;5106673;27;20044;-77
2021/10/22 04:06:57;;;;;;;14.05;3.03;;;5.50;99.90;;;;;;5078235;27;20062;-77
2021/10/22 04:09:31;;;;;;;11.05;2.10;;;5.50;99.90;;;;;;5123766;27;20047;-76
2021/10/22 04:11:58;;;;;;;8.82;2.45;;;5.50;99.90;;;;;;5082105;27;20517;-76
2021/10/22 04:14:25;;;;;;;15.23;2.78;;;5.50;99.90;;;;;;5107660;27;20034;-76
2021/10/22 04:16:51;;;;;;;15.82;2.50;;;5.60;99.90;;;;;;5093491;27;20479;-76
2021/10/22 04:19:18;;;;;;;13.70;2.08;;;5.60;99.90;;;;;;5090338;27;20027;-77
2021/10/22 04:21:44;;;;;;;9.25;2.05;;;5.70;99.90;;;;;;5102504;27;20521;-77
2021/10/22 04:24:10;;;;;;;15.23;2.42;;;5.80;99.90;;;;;;5080048;27;20043;-77
2021/10/22 04:26:37;;;;;;;12.27;2.35;;;5.90;99.90;;;;;;5083831;27;20050;-77
2021/10/22 04:29:03;;;;;;;15.10;2.83;;;5.90;99.90;;;;;;5083073;27;20393;-77
2021/10/22 04:31:30;;;;;;;12.38;2.17;;;5.90;99.90;;;;;;5116881;27;20034;-77
2021/10/22 04:33:56;;;;;;;19.48;2.88;;;5.90;99.90;;;;;;5107878;27;20475;-77
2021/10/22 04:36:23;;;;;;;12.05;3.10;;;6.00;99.90;;;;;;5096403;27;20031;-77
2021/10/22 04:41:34;;;;;;;15.65;3.17;;;6.00;99.90;;;;;;5084049;27;20047;-77
2021/10/22 04:44:01;;;;;;;15.63;3.30;;;6.10;99.90;;;;;;5112775;27;20372;-77
2021/10/22 04:46:27;;;;;;;9.70;2.80;;;6.10;99.90;;;;;;5112776;27;20051;-76
2021/10/22 04:48:54;;;;;;;12.40;2.42;;;6.20;99.90;;;;;;5093011;27;20062;-76
2021/10/22 04:51:20;;;;;;;17.73;3.65;;;6.20;99.90;;;;;;5108166;27;20036;-77
2021/10/22 04:53:47;;;;;;;11.48;3.00;;;6.30;99.90;;;;;;5080073;27;20067;-77
2021/10/22 04:56:13;;;;;;;18.33;4.43;;;6.30;99.90;;;;;;5097008;27;20038;-77
2021/10/22 04:58:39;;;;;;;18.80;4.90;;;6.30;99.90;;;;;;5113058;27;20036;-77
2021/10/22 05:01:06;;;;;;;15.68;3.22;;;6.40;99.90;;;;;;5125082;27;20421;-77
2021/10/22 05:03:33;;;;;;;10.65;2.42;;;6.40;99.90;;;;;;5111474;27;20475;-77
2021/10/22 05:06:00;;;;;;;12.57;2.78;;;6.40;99.90;;;;;;5123563;27;20054;-77
2021/10/22 05:08:27;;;;;;;13.93;3.75;;;6.40;99.90;;;;;;5089899;27;20034;-77
2021/10/22 05:10:54;;;;;;;18.05;3.25;;;6.40;99.90;;;;;;5094383;27;20042;-77
2021/10/22 05:13:20;;;;;;;12.55;2.67;;;6.50;99.90;;;;;;5094144;27;20417;-77
2021/10/22 05:15:47;;;;;;;12.70;2.72;;;6.50;99.90;;;;;;5092631;27;20044;-77
2021/10/22 05:18:13;;;;;;;15.32;2.95;;;6.50;99.90;;;;;;5124083;27;20032;-77
2021/10/22 05:20:40;;;;;;;18.70;3.17;;;6.60;99.90;;;;;;5077794;27;20054;-77
2021/10/22 05:23:07;;;;;;;15.32;2.80;;;6.60;99.90;;;;;;5082199;27;20403;-77
2021/10/22 05:25:33;;;;;;;17.95;3.20;;;6.60;99.90;;;;;;5115807;27;20035;-77
2021/10/22 05:27:59;;;;;;;13.38;2.75;;;6.60;99.90;;;;;;5113310;27;20039;-77
2021/10/22 05:30:26;;;;;;;11.93;2.90;;;6.70;99.90;;;;;;5113898;27;20045;-76
2021/10/22 05:32:53;;;;;;;12.85;2.88;;;6.70;99.90;;;;;;5093088;27;20502;-77
2021/10/22 05:35:19;;;;;;;6.53;2.00;;;6.70;99.90;;;;;;5126458;27;20035;-77
2021/10/22 05:37:46;;;;;;;14.65;2.55;;;6.70;99.90;;;;;;5074673;27;20038;-75
2021/10/22 05:40:12;;;;;;;16.00;2.65;;;6.70;99.90;;;;;;5075107;27;20035;-75
2021/10/22 05:42:38;;;;;;;13.13;2.03;;;6.60;99.90;;;;;;5093726;27;20046;-76
2021/10/22 05:45:05;;;;;;;12.65;2.92;;;6.50;99.90;;;;;;5090759;27;20031;-76
2021/10/22 05:47:32;;;;;;;12.30;3.03;;;6.50;99.90;;;;;;5091128;27;20047;-76
2021/10/22 05:49:58;;;;;;;13.27;2.42;;;6.40;99.90;;;;;;5065847;27;20043;-76
2021/10/22 05:52:25;;;;;;;12.60;2.38;;;6.40;99.90;;;;;;5108710;27;20042;-76
2021/10/22 05:54:51;;;;;;;11.73;2.25;;;6.30;99.90;;;;;;5109399;27;20446;-76
2021/10/22 05:57:18;;;;;;;20.88;3.50;;;6.30;99.90;;;;;;5079178;27;20035;-76
2021/10/22 05:59:44;;;;;;;15.60;2.70;;;6.30;99.90;;;;;;5094817;27;20038;-76
2021/10/22 06:02:11;;;;;;;17.80;3.08;;;6.30;99.90;;;;;;5092937;27;20046;-76
2021/10/22 06:04:38;;;;;;;16.02;2.78;;;6.20;99.90;;;;;;5092409;27;20035;-76
2021/10/22 06:07:04;;;;;;;14.85;3.03;;;6.30;99.90;;;;;;5063179;28;20048;-77
2021/10/22 06:09:31;;;;;;;10.48;2.50;;;6.30;99.90;;;;;;5090382;28;20028;-75
2021/10/22 06:11:57;;;;;;;19.50;2.80;;;6.40;99.90;;;;;;5075328;28;20044;-76
2021/10/22 06:14:24;;;;;;;10.13;2.15;;;6.40;99.90;;;;;;5054037;28;20511;-76
2021/10/22 06:16:50;;;;;;;17.30;2.78;;;6.60;99.90;;;;;;5093314;28;20035;-76
2021/10/22 06:19:22;;;;;;;6.15;1.85;;;6.60;99.90;;;;;;5091200;28;20043;-76
2021/10/22 06:22:34;;;;;;;17.45;2.53;;;6.70;99.90;;;;;;5071850;28;20040;-75
2021/10/22 06:24:41;;;;;;;16.58;2.80;;;6.70;99.90;;;;;;5060937;28;20842;-75
2021/10/22 06:27:09;;;;;;;14.45;3.10;;;6.80;99.90;;;;;;5090293;28;20617;-76
2021/10/22 06:29:35;;;;;;;20.25;3.63;;;6.90;99.90;;;;;;5062079;28;20048;-74
2021/10/22 06:32:02;;;;;;;15.48;2.60;;;6.90;99.90;;;;;;5043065;28;20051;-76
2021/10/22 06:34:29;;;;;;;21.88;3.15;;;7.00;99.90;;;;;;5070165;28;20024;-77
2021/10/22 06:36:56;;;;;;;12.55;2.58;;;7.00;99.90;;;;;;5081937;28;20374;-75
2021/10/22 06:39:23;;;;;;;10.27;2.60;;;7.10;99.90;;;;;;5065218;28;20031;-75
2021/10/22 06:41:50;;;;;;;20.27;3.17;;;7.10;99.90;;;;;;5089348;28;20032;-75
2021/10/22 06:44:18;;;;;;;12.90;3.40;;;7.10;99.90;;;;;;5071768;28;20036;-75
2021/10/22 06:46:44;;;;;;;16.65;3.08;;;7.10;99.90;;;;;;5082173;28;20036;-76
2021/10/22 06:49:12;;;;;;;11.73;2.42;;;7.10;99.90;;;;;;5062749;28;20048;-74
2021/10/22 06:51:38;;;;;;;16.08;3.30;;;7.10;99.90;;;;;;5065897;28;20036;-76
2021/10/22 06:54:05;;;;;;;15.57;2.83;;;7.10;99.90;;;;;;5078052;28;20066;-76
2021/10/22 06:56:32;;;;;;;11.52;2.60;;;7.10;99.90;;;;;;5087573;28;20028;-76
2021/10/22 06:58:58;;;;;;;13.65;3.15;;;7.10;99.90;;;;;;5057719;28;20031;-75
2021/10/22 07:01:25;;;;;;;17.73;4.10;;;7.20;99.90;;;;;;5079350;28;20469;-76
2021/10/22 07:03:52;;;;;;;14.20;4.15;;;7.30;99.90;;;;;;5094944;28;20036;-76
2021/10/22 07:09:03;;;;;;;17.33;3.75;;;7.30;99.90;;;;;;5091831;28;20107;-76
2021/10/22 07:11:29;;;;;;;17.88;3.42;;;7.40;99.90;;;;;;5087062;28;20397;-76
2021/10/22 07:13:57;;;;;;;10.07;3.20;;;7.40;99.90;;;;;;5085903;28;20043;-76
2021/10/22 07:16:30;;;;;;;15.60;3.53;;;7.40;99.90;;;;;;5087585;28;20044;-76
2021/10/22 07:18:57;;;;;;;15.35;4.05;;;7.50;99.90;;;;;;5070792;28;20044;-76
2021/10/22 07:21:23;;;;;;;19.58;4.45;;;7.50;99.90;;;;;;5089797;28;20035;-75
2021/10/22 07:23:51;;;;;;;15.30;3.70;;;7.40;99.90;;;;;;5069367;28;20036;-76
2021/10/22 07:26:20;;;;;;;16.92;4.45;;;7.50;99.90;;;;;;5082086;28;20036;-76
2021/10/22 07:28:48;;;;;;;14.75;3.72;;;7.50;99.90;;;;;;5080443;28;20035;-76
2021/10/22 07:31:15;;;;;;;13.65;3.05;;;7.40;99.90;;;;;;5086476;28;20036;-76
2021/10/22 07:33:43;;;;;;;15.35;3.63;;;7.40;99.90;;;;;;5080998;28;20040;-77
2021/10/22 07:36:13;;;;;;;14.20;3.50;;;7.40;99.90;;;;;;5096404;27;20043;-75
2021/10/22 07:38:43;;;;;;;12.98;3.95;;;7.50;99.90;;;;;;5074161;28;20036;-75
2021/10/22 07:41:12;;;;;;;19.98;3.67;;;7.70;99.90;;;;;;5084800;28;20032;-77
2021/10/22 07:43:38;;;;;;;15.85;4.43;;;7.80;99.90;;;;;;5086418;28;20421;-76
2021/10/22 07:46:06;;;;;;;16.77;3.55;;;7.90;99.90;;;;;;5071494;28;20833;-76
2021/10/22 07:48:34;;;;;;;14.15;4.22;;;7.90;99.90;;;;;;5062431;28;20036;-75
2021/10/22 07:51:00;;;;;;;12.93;2.85;;;8.00;99.90;;;;;;5085475;28;20032;-77
2021/10/22 07:53:27;;;;;;;12.18;3.00;;;8.00;99.90;;;;;;5096244;27;20031;-76
2021/10/22 07:55:54;;;;;;;14.98;2.92;;;8.00;99.90;;;;;;5095488;28;20047;-76
2021/10/22 07:58:20;;;;;;;16.85;3.60;;;8.00;99.90;;;;;;5086436;28;20032;-77
2021/10/22 08:00:46;;;;;;;15.13;3.30;;;8.10;99.90;;;;;;5094047;28;20036;-75
2021/10/22 08:03:13;;;;;;;11.45;2.80;;;8.10;99.90;;;;;;5095573;28;20036;-76
2021/10/22 08:05:40;;;;;;;16.27;3.05;;;8.20;99.90;;;;;;5096656;28;20055;-78
2021/10/22 08:08:07;;;;;;;15.68;3.13;;;8.20;99.90;;;;;;5099316;27;20065;-77
2021/10/22 08:10:34;;;;;;;17.13;4.05;;;8.20;99.90;;;;;;5095081;27;20043;-78
2021/10/22 08:13:01;;;;;;;12.32;3.22;;;8.30;99.90;;;;;;5109725;27;20043;-78
2021/10/22 08:15:29;;;;;;;11.38;3.05;;;8.40;99.90;;;;;;5077926;27;20043;-77
2021/10/22 08:17:55;;;;;;;11.98;2.75;;;8.40;99.90;;;;;;5075992;27;20024;-75
2021/10/22 08:20:24;;;;;;;14.25;2.92;;;8.50;99.90;;;;;;5097356;27;20492;-77
2021/10/22 08:22:52;;;;;;;12.55;2.53;;;8.60;99.90;;;;;;5110203;27;20027;-77
2021/10/22 08:25:21;;;;;;;16.88;3.97;;;8.70;99.90;;;;;;5100203;27;20043;-77
2021/10/22 08:27:50;;;;;;;15.48;3.90;;;8.60;99.90;;;;;;5113269;27;20041;-77
2021/10/22 08:30:21;;;;;;;14.90;3.13;;;8.60;99.90;;;;;;5111934;27;20472;-73
2021/10/22 08:32:52;;;;;;;16.38;3.05;;;8.60;99.90;;;;;;5107407;27;20050;-72
2021/10/22 08:35:20;;;;;;;16.67;3.63;;;8.60;99.90;;;;;;5093805;27;20039;-74
2021/10/22 08:37:48;;;;;;;15.32;2.63;;;8.50;99.90;;;;;;5127811;27;20019;-73
2021/10/22 08:40:16;;;;;;;11.70;2.28;;;8.60;99.90;;;;;;5109753;27;20057;-73
2021/10/22 08:42:43;;;;;;;14.98;3.75;;;8.70;99.90;;;;;;5124279;27;20031;-73
2021/10/22 08:45:11;;;;;;;10.05;2.40;;;8.90;99.90;;;;;;5115035;27;20032;-74
2021/10/22 08:47:38;;;;;;;15.10;3.38;;;9.20;99.90;;;;;;5093825;27;20041;-74
2021/10/22 08:50:08;;;;;;;12.07;3.60;;;9.30;99.90;;;;;;5108654;27;20031;-74
2021/10/22 08:52:36;;;;;;;12.93;3.30;;;9.40;99.90;;;;;;5123337;27;20043;-74
2021/10/22 08:55:05;;;;;;;14.32;2.65;;;9.40;99.90;;;;;;5125919;27;20057;-74
2021/10/22 08:57:33;;;;;;;15.27;3.60;;;9.40;99.90;;;;;;5091117;27;20027;-75
2021/10/22 09:00:02;;;;;;;15.77;3.72;;;9.30;99.90;;;;;;5120645;27;20034;-75
2021/10/22 09:02:29;;;;;;;13.23;2.97;;;9.30;99.90;;;;;;5078029;27;20069;-75
2021/10/22 09:04:59;;;;;;;14.02;3.13;;;9.30;99.90;;;;;;5093717;27;20039;-75
2021/10/22 09:07:41;;;;;;;13.68;3.78;;;9.40;99.90;;;;;;5092655;27;20155;-75
2021/10/22 09:10:12;;;;;;;11.20;2.17;;;9.50;99.90;;;;;;5131491;27;20353;-75
2021/10/22 09:13:06;;;;;;;10.90;2.58;;;9.70;99.90;;;;;;5108549;27;20039;-74
2021/10/22 09:15:32;;;;;;;;;;;9.80;99.90;;;;;;5116985;27;20038;-76
2021/10/22 09:18:05;;;;;;;9.18;1.90;;;9.80;99.90;;;;;;5091421;27;20308;-74
2021/10/22 09:20:31;;;;;;;9.55;2.20;;;9.80;99.90;;;;;;5121616;27;20030;-75
2021/10/22 09:23:02;;;;;;;13.18;2.28;;;9.80;99.90;;;;;;5089739;27;20035;-75
2021/10/22 09:25:31;;;;;;;17.30;4.22;;;9.80;99.90;;;;;;5093463;27;20031;-76
2021/10/22 09:28:00;;;;;;;15.48;2.90;;;9.80;99.90;;;;;;5077397;27;20813;-76
2021/10/22 09:30:31;;;;;;;14.27;2.15;;;9.80;99.90;;;;;;5077136;27;20046;-75
2021/10/22 09:33:04;;;;;;;14.43;2.28;;;9.80;99.90;;;;;;5135448;27;20031;-76
2021/10/22 09:35:44;;;;;;;8.98;1.85;;;9.90;99.90;;;;;;5118659;27;20031;-77
2021/10/22 09:38:16;;;;;;;9.82;1.50;;;9.90;99.90;;;;;;5094712;27;20042;-74
2021/10/22 09:40:44;;;;;;;10.13;1.83;;;10.00;99.90;;;;;;5118047;27;20031;-76
2021/10/22 09:43:20;;;;;;;17.80;2.83;;;10.00;99.90;;;;;;5095815;27;20296;-76
2021/10/22 09:45:48;;;;;;;13.57;2.58;;;10.00;99.90;;;;;;5113692;27;20514;-76
2021/10/22 09:48:22;;;;;;;11.63;2.15;;;10.00;99.90;;;;;;5095578;27;20039;-76
2021/10/22 09:50:49;;;;;;;11.38;2.47;;;10.10;99.90;;;;;;5116648;27;20045;-74
2021/10/22 09:53:35;;;;;;;14.50;2.33;;;10.20;99.90;;;;;;5073304;27;20050;-76
2021/10/22 09:56:06;;;;;;;11.30;1.98;;;10.30;99.90;;;;;;5098583;27;20031;-75
2021/10/22 09:58:34;;;;;;;14.13;2.22;;;10.20;99.90;;;;;;5106549;27;20023;-77
2021/10/22 10:01:11;;;;;;;8.88;1.20;;;10.20;99.90;;;;;;5079444;27;20035;-76
2021/10/22 10:03:42;;;;;;;12.35;2.03;;;10.10;99.90;;;;;;5107630;27;20069;-75
2021/10/22 10:06:11;;;;;;;15.35;1.95;;;10.10;99.90;;;;;;5085987;28;20517;-74
2021/10/22 10:08:39;;;;;;;8.45;0.98;;;10.00;99.90;;;;;;5098540;28;20035;-75
2021/10/22 10:11:08;;;;;;;11.75;1.30;;;9.90;99.90;;;;;;5090543;28;20031;-74
2021/10/22 10:13:35;;;;;;;9.63;1.20;;;9.90;99.90;;;;;;5072106;28;20040;-75
2021/10/22 10:16:04;;;;;;;9.02;1.25;;;9.80;99.90;;;;;;5088283;28;20041;-75
2021/10/22 10:18:41;;;;;;;10.30;1.70;;;9.80;99.90;;;;;;5100635;28;20027;-76
2021/10/22 10:21:11;;;;;;;10.65;1.73;;;9.80;99.90;;;;;;5076875;28;20036;-75
2021/10/22 10:23:42;;;;;;;14.93;1.67;;;9.70;99.90;;;;;;5091038;28;20033;-76
2021/10/22 10:26:31;;;;;;;15.80;1.92;;;9.70;99.90;;;;;;5073478;28;20536;-77
2021/10/22 10:29:01;;;;;;;11.45;1.75;;;9.70;99.90;;;;;;5098201;28;20047;-76
2021/10/22 10:31:33;;;;;;;13.38;1.50;;;9.80;99.90;;;;;;5089558;28;20039;-75
2021/10/22 10:34:01;;;;;;;;;;;9.80;99.90;;;;;;5095970;28;20031;-76
2021/10/22 10:36:50;;;;;;;14.95;2.00;;;9.80;99.90;;;;;;5097828;28;20383;-74
2021/10/22 10:39:41;;;;;;;10.68;1.42;;;9.90;99.90;;;;;;5091235;28;20238;-75
2021/10/22 10:42:21;;;;;;;13.50;2.13;;;10.00;99.90;;;;;;5091771;28;20046;-76
2021/10/22 10:44:48;;;;;;;13.25;2.55;;;10.10;99.90;;;;;;5054812;28;20040;-76
2021/10/22 10:47:27;;;;;;;13.25;1.83;;;10.20;99.90;;;;;;5095467;28;20507;-76
2021/10/22 10:49:53;;;;;;;9.55;1.73;;;10.20;99.90;;;;;;5091614;28;20042;-76
2021/10/22 10:52:39;;;;;;;9.88;2.05;;;10.20;99.90;;;;;;5091993;28;20029;-75
2021/10/22 10:55:25;;;;;;;7.65;1.42;;;10.30;99.90;;;;;;5092712;28;20043;-76
2021/10/22 10:58:12;;;;;;;11.85;1.85;;;10.60;99.90;;;;;;5088671;28;20032;-76
2021/10/22 11:00:43;;;;;;;13.23;2.00;;;10.90;99.90;;;;;;5070483;28;20047;-75
2021/10/22 11:03:17;;;;;;;8.05;1.48;;;11.20;99.90;;;;;;5087860;28;20040;-75
2021/10/22 11:05:47;;;;;;;10.75;1.67;;;11.30;99.90;;;;;;5085776;28;20515;-75
2021/10/22 11:08:16;;;;;;;6.97;1.58;;;11.40;99.90;;;;;;5122813;27;20049;-75
2021/10/22 11:11:13;;;;;;;8.60;1.55;;;11.50;99.90;;;;;;5106950;27;20047;-75
2021/10/22 11:13:59;;;;;;;9.85;1.10;;;11.60;99.90;;;;;;5121304;27;20049;-75
2021/10/22 11:16:41;;;;;;;10.20;1.25;;;11.70;99.90;;;;;;5128969;27;20043;-75
2021/10/22 11:19:09;;;;;;;10.13;1.13;;;11.80;99.90;;;;;;5116260;27;20090;-76
2021/10/22 11:21:38;;;;;;;9.02;1.60;;;12.00;99.90;;;;;;5101947;27;20494;-75
2021/10/22 11:24:07;;;;;;;13.45;1.67;;;12.20;99.90;;;;;;5126119;27;20030;-74
2021/10/22 11:26:35;;;;;;;13.30;1.35;;;12.30;99.90;;;;;;5120454;27;20031;-74
2021/10/22 11:29:14;;;;;;;9.65;1.35;;;12.40;99.90;;;;;;5096444;27;20541;-73
2021/10/22 11:31:49;;;;;;;12.65;1.23;;;12.30;99.90;;;;;;5096497;27;20057;-73
2021/10/22 11:34:22;;;;;;;9.63;1.05;;;12.20;99.90;;;;;;5113839;27;20038;-74
2021/10/22 11:37:08;;;;;;;12.57;1.83;;;12.40;99.90;;;;;;5109395;27;20042;-74
2021/10/22 11:39:40;;;;;;;9.10;1.83;;;12.80;99.90;;;;;;5089332;27;20039;-76
2021/10/22 11:42:27;;;;;;;7.97;1.37;;;13.30;99.90;;;;;;5095754;27;20042;-74
2021/10/22 11:45:00;;;;;;;13.35;1.40;;;13.60;99.90;;;;;;5119203;27;20290;-75
2021/10/22 11:47:33;;;;;;;10.10;1.35;;;13.70;99.90;;;;;;5112365;27;20035;-75
2021/10/22 11:50:31;;;;;;;9.88;0.98;;;13.60;99.90;;;;;;5093668;27;20044;-75
2021/10/22 11:52:57;;;;;;;9.40;0.98;;;13.40;99.90;;;;;;5098669;27;20042;-74
2021/10/22 11:55:26;;;;;;;11.13;1.48;;;13.20;99.90;;;;;;5118895;27;20034;-75
2021/10/22 11:57:55;;;;;;;9.25;1.00;;;13.10;99.90;;;;;;5101427;27;20761;-74
2021/10/22 12:00:26;;;;;;;12.60;0.80;;;13.00;99.90;;;;;;5094890;27;20031;-75
2021/10/22 12:02:52;;;;;;;8.00;0.95;;;12.80;99.90;;;;;;5083372;27;20038;-74
2021/10/22 12:05:19;;;;;;;10.95;0.90;;;12.70;99.90;;;;;;5080756;27;20043;-75
2021/10/22 12:07:51;;;;;;;11.13;0.98;;;12.70;99.90;;;;;;5061143;27;20042;-74
2021/10/22 12:10:18;;;;;;;9.27;1.02;;;12.70;99.90;;;;;;5108541;27;20046;-75
2021/10/22 12:12:51;;;;;;;9.65;1.20;;;12.70;99.90;;;;;;5095883;27;20039;-75
2021/10/22 12:15:28;;;;;;;6.63;0.80;;;12.70;99.90;;;;;;5127578;27;20050;-75
2021/10/22 12:18:01;;;;;;;6.97;0.80;;;12.70;99.90;;;;;;5096368;27;20557;-74
2021/10/22 12:20:33;;;;;;;12.73;1.15;;;12.80;99.90;;;;;;5075160;27;20038;-75
2021/10/22 12:23:00;;;;;;;17.83;1.67;;;12.80;99.90;;;;;;5114731;27;20038;-75
2021/10/22 12:25:29;;;;;;;9.93;1.10;;;12.70;99.90;;;;;;5098052;27;20151;-75
2021/10/22 12:28:01;;;;;;;13.35;1.30;;;12.70;99.90;;;;;;5078083;27;20043;-75
2021/10/22 12:30:30;;;;;;;9.55;1.00;;;12.70;99.90;;;;;;5108866;27;20034;-75
2021/10/22 12:33:10;;;;;;;9.55;0.70;;;12.70;99.90;;;;;;5111641;27;20027;-75
2021/10/22 12:35:42;;;;;;;11.73;0.95;;;12.70;99.90;;;;;;5094413;27;20039;-75
2021/10/22 12:38:16;;;;;;;8.35;1.10;;;12.70;99.90;;;;;;5112724;27;20026;-76
2021/10/22 12:40:45;;;;;;;8.70;0.73;;;12.60;99.90;;;;;;5111563;27;20036;-76
2021/10/22 12:43:13;;;;;;;9.95;1.00;;;12.50;99.90;;;;;;5108999;27;20508;-75
2021/10/22 12:45:52;;;;;;;6.18;0.80;;;12.30;99.90;;;;;;5128250;27;20039;-76
2021/10/22 12:48:25;;;;;;;7.78;0.80;;;12.10;99.90;;;;;;5097115;27;20031;-76
2021/10/22 12:50:53;;;;;;;9.50;0.73;;;11.90;99.90;;;;;;5111753;27;20039;-76
2021/10/22 12:53:30;;;;;;;5.90;0.90;;;11.80;99.90;;;;;;5110300;27;20047;-76
2021/10/22 12:56:11;;;;;;;8.30;0.80;;;11.70;99.90;;;;;;5095770;27;20070;-76
2021/10/22 12:58:39;;;;;;;7.18;0.70;;;11.60;99.90;;;;;;5098978;27;20036;-76
2021/10/22 13:01:13;;;;;;;12.93;1.00;;;11.60;99.90;;;;;;5100161;27;20032;-75
2021/10/22 13:03:47;;;;;;;12.52;0.80;;;11.50;99.90;;;;;;5112515;27;20039;-75